Time;durP1;ratioP1;P1;durP2;ratioP2;P2;SDS_P1;SDS_P2;PMS_P1;PMS_P2;Temp;Humidity;BMP_temperature;BMP_pressure;BME280_temperature;BME280_humidity;BME280_pressure;Samples;Min_cycle;Max_cycle;Signal;HPM_P1;HPM_P2
2022/09/19 00:01:53;;;;;;;;;7.50;5.00;;;;;27.05;100.00;101436.81;5081563;27;51053;-61
2022/09/19 00:04:38;;;;;;;;;9.00;3.75;;;;;27.03;100.00;101430.56;5084048;27;51028;-61
2022/09/19 00:07:22;;;;;;;;;9.25;4.75;;;;;27.07;100.00;101434.00;5068835;27;51439;-61
2022/09/19 00:10:07;;;;;;;;;6.50;5.00;;;;;27.08;100.00;101430.28;5083944;27;51204;-61
2022/09/19 00:12:55;;;;;;;;;8.00;6.25;;;;;27.06;100.00;101426.75;5083987;27;51172;-61
2022/09/19 00:15:48;;;;;;;;;7.25;4.00;;;;;27.10;100.00;101433.81;5083921;27;51128;-61
2022/09/19 00:18:33;;;;;;;;;10.00;6.50;;;;;27.12;100.00;101425.50;5084139;27;51006;-60
2022/09/19 00:21:27;;;;;;;;;8.00;8.00;;;;;27.14;100.00;101420.84;5083497;27;51145;-60
2022/09/19 00:27:25;;;;;;;;;11.50;9.00;;;;;27.10;100.00;101422.88;5083605;27;51458;-61
2022/09/19 00:30:10;;;;;;;;;9.75;7.75;;;;;27.06;100.00;101403.09;5083734;27;51120;-61
2022/09/19 00:32:55;;;;;;;;;12.75;8.75;;;;;27.11;100.00;101410.97;5083573;27;51538;-61
2022/09/19 00:35:39;;;;;;;;;16.75;11.00;;;;;27.09;100.00;101398.41;5083467;27;51190;-61
2022/09/19 00:38:26;;;;;;;;;13.00;9.00;;;;;27.11;100.00;101397.31;5083278;27;51481;-61
2022/09/19 00:41:20;;;;;;;;;14.75;9.25;;;;;27.10;100.00;101391.94;5083488;27;51049;-61
2022/09/19 00:44:21;;;;;;;;;4.50;4.25;;;;;27.10;100.00;101389.22;5083225;27;51244;-61
2022/09/19 00:47:12;;;;;;;;;7.75;5.75;;;;;27.04;100.00;101382.28;5083164;27;53146;-61
2022/09/19 00:49:58;;;;;;;;;9.00;5.50;;;;;27.02;100.00;101385.13;5083082;27;51086;-61
2022/09/19 00:52:48;;;;;;;;;5.25;4.00;;;;;26.97;100.00;101376.34;5083047;27;51399;-61
2022/09/19 00:55:33;;;;;;;;;9.50;7.25;;;;;26.92;100.00;101370.28;5083227;27;51126;-61
2022/09/19 00:58:35;;;;;;;;;10.75;8.25;;;;;26.82;100.00;101359.09;5082835;27;51472;-60
2022/09/19 01:01:20;;;;;;;;;16.75;9.25;;;;;26.79;100.00;101359.28;5067634;27;51180;-60
2022/09/19 01:04:16;;;;;;;;;9.00;7.75;;;;;26.72;100.00;101336.91;5054023;27;51471;-61
2022/09/19 01:07:26;;;;;;;;;16.25;8.25;;;;;26.79;100.00;101348.34;5082610;27;51409;-60
2022/09/19 01:10:17;;;;;;;;;9.00;8.00;;;;;26.77;100.00;101339.34;5082637;27;51416;-61
2022/09/19 01:13:44;;;;;;;;;20.25;11.25;;;;;26.73;100.00;101340.50;5082735;27;51416;-61
2022/09/19 01:16:41;;;;;;;;;9.50;7.75;;;;;26.72;100.00;101353.28;5056727;27;51083;-61
2022/09/19 01:19:59;;;;;;;;;10.00;7.50;;;;;26.69;100.00;101350.72;5083051;27;51138;-61
2022/09/19 01:22:50;;;;;;;;;9.00;8.25;;;;;26.70;100.00;101346.16;5082779;27;51136;-61
2022/09/19 01:25:34;;;;;;;;;13.75;9.00;;;;;26.68;100.00;101340.78;5082516;27;51548;-61
2022/09/19 01:28:24;;;;;;;;;8.50;7.00;;;;;26.60;100.00;101338.56;5082833;27;51198;-61
2022/09/19 01:31:20;;;;;;;;;11.25;8.75;;;;;26.56;100.00;101336.09;5082444;27;51454;-60
2022/09/19 01:34:16;;;;;;;;;10.50;8.25;;;;;26.50;100.00;101326.44;5067315;27;51089;-61
2022/09/19 01:37:09;;;;;;;;;10.00;8.25;;;;;26.54;100.00;101336.19;5066870;27;51180;-61
2022/09/19 01:39:55;;;;;;;;;9.00;7.00;;;;;26.47;100.00;101315.72;5067026;27;51692;-60
2022/09/19 01:42:57;;;;;;;;;9.75;7.25;;;;;26.48;100.00;101313.84;5066185;27;51082;-60
2022/09/19 01:45:42;;;;;;;;;11.25;8.50;;;;;26.44;100.00;101302.25;5082253;27;51339;-61
2022/09/19 01:48:55;;;;;;;;;8.75;5.75;;;;;26.47;100.00;101304.81;5082560;27;51164;-61
2022/09/19 01:51:47;;;;;;;;;8.75;5.00;;;;;26.49;100.00;101304.69;5066636;27;51346;-61
2022/09/19 01:55:08;;;;;;;;;3.75;3.00;;;;;26.54;100.00;101305.31;5066857;27;51185;-60
2022/09/19 01:57:59;;;;;;;;;6.00;5.25;;;;;26.59;100.00;101305.88;5081946;27;51505;-61
2022/09/19 02:01:19;;;;;;;;;14.50;6.50;;;;;26.57;100.00;101295.06;5082056;27;51110;-61
2022/09/19 02:04:20;;;;;;;;;13.50;9.25;;;;;26.65;100.00;101304.63;5081744;27;51329;-60
2022/09/19 02:07:20;;;;;;;;;14.00;7.75;;;;;26.60;100.00;101294.88;5066145;27;51554;-61
2022/09/19 02:10:08;;;;;;;;;8.50;6.00;;;;;26.68;100.00;101298.97;5066771;27;51148;-61
2022/09/19 02:12:54;;;;;;;;;19.75;13.25;;;;;26.70;100.00;101295.16;5052191;27;51138;-61
2022/09/19 02:15:41;;;;;;;;;21.25;12.00;;;;;26.70;100.00;101297.91;5071004;27;51062;-61
2022/09/19 02:18:31;;;;;;;;;12.75;8.00;;;;;26.71;100.00;101298.78;5064834;27;51229;-61
2022/09/19 02:21:25;;;;;;;;;14.25;12.00;;;;;26.73;100.00;101294.09;5065543;27;51138;-60
2022/09/19 02:24:13;;;;;;;;;10.75;10.75;;;;;26.73;100.00;101288.63;5081134;27;51124;-61
2022/09/19 02:27:07;;;;;;;;;16.50;14.75;;;;;26.76;100.00;101278.41;5066262;27;51188;-61
2022/09/19 02:29:59;;;;;;;;;18.25;11.50;;;;;26.74;100.00;101280.34;5081722;27;51204;-61
2022/09/19 02:32:47;;;;;;;;;14.00;13.00;;;;;26.80;100.00;101284.59;5065711;27;51079;-60
2022/09/19 02:35:41;;;;;;;;;13.00;9.25;;;;;26.84;100.00;101283.41;5081041;27;51089;-61
2022/09/19 02:38:37;;;;;;;;;15.25;9.50;;;;;26.86;100.00;101283.31;5081190;27;51449;-60
2022/09/19 02:41:42;;;;;;;;;11.75;9.25;;;;;26.84;100.00;101279.81;5081302;27;51122;-60
2022/09/19 02:44:43;;;;;;;;;15.00;9.25;;;;;26.90;100.00;101290.31;5080925;27;51129;-61
2022/09/19 02:47:50;;;;;;;;;15.75;12.00;;;;;26.91;100.00;101283.88;5065658;27;51234;-61
2022/09/19 02:50:41;;;;;;;;;15.50;8.25;;;;;26.93;100.00;101289.25;5080811;27;51754;-60
2022/09/19 02:53:30;;;;;;;;;12.00;8.75;;;;;26.89;100.00;101296.75;5081040;27;51003;-60
2022/09/19 02:56:16;;;;;;;;;15.00;10.00;;;;;26.88;100.00;101287.69;5081338;27;51090;-61
2022/09/19 02:59:09;;;;;;;;;13.00;10.50;;;;;26.91;100.00;101292.97;5080611;27;51363;-61
2022/09/19 03:02:16;;;;;;;;;14.25;11.50;;;;;26.95;100.00;101287.28;5065308;27;51132;-60
2022/09/19 03:05:09;;;;;;;;;15.25;11.50;;;;;26.97;100.00;101283.50;5080543;27;51223;-61
2022/09/19 03:08:00;;;;;;;;;16.25;13.50;;;;;26.99;100.00;101278.78;5080788;27;51053;-61
2022/09/19 03:10:48;;;;;;;;;13.25;9.25;;;;;26.98;100.00;101285.25;5050613;27;51141;-61
2022/09/19 03:13:33;;;;;;;;;11.50;10.00;;;;;26.99;100.00;101280.66;5065319;27;51368;-61
2022/09/19 03:16:35;;;;;;;;;13.75;8.25;;;;;27.00;100.00;101286.03;5064991;27;51131;-61
2022/09/19 03:19:19;;;;;;;;;15.00;11.25;;;;;27.02;100.00;101292.25;5064798;27;51203;-60
2022/09/19 03:22:03;;;;;;;;;11.50;10.00;;;;;27.02;100.00;101289.53;5080284;27;51184;-61
2022/09/19 03:24:48;;;;;;;;;14.50;13.75;;;;;26.99;100.00;101292.44;5064456;27;51550;-61
2022/09/19 03:27:32;;;;;;;;;19.75;12.50;;;;;26.95;100.00;101299.09;5080412;27;51281;-61
2022/09/19 03:30:17;;;;;;;;;18.00;13.25;;;;;26.92;100.00;101310.22;5080063;27;51128;-61
2022/09/19 03:33:02;;;;;;;;;19.00;15.75;;;;;26.89;100.00;101302.22;5080382;27;51179;-61
2022/09/19 03:35:50;;;;;;;;;22.50;14.00;;;;;26.88;100.00;101312.28;5079961;27;51401;-61
2022/09/19 03:38:37;;;;;;;;;12.00;11.75;;;;;26.87;100.00;101307.78;5079901;27;51184;-61
2022/09/19 03:41:22;;;;;;;;;20.25;14.25;;;;;26.90;100.00;101312.16;5065641;27;51093;-60
2022/09/19 03:44:08;;;;;;;;;11.25;11.25;;;;;26.88;100.00;101306.81;5076587;27;51216;-61
2022/09/19 03:46:53;;;;;;;;;10.75;9.50;;;;;26.87;100.00;101307.78;5080179;27;51125;-61
2022/09/19 03:49:37;;;;;;;;;15.75;12.50;;;;;26.86;100.00;101306.03;5079734;27;51229;-61
2022/09/19 03:52:21;;;;;;;;;11.25;11.25;;;;;26.91;100.00;101322.09;5080269;28;51166;-60
2022/09/19 03:55:07;;;;;;;;;19.00;14.25;;;;;26.92;100.00;101321.13;5050744;28;51294;-61
2022/09/19 03:57:51;;;;;;;;;14.00;13.25;;;;;26.94;100.00;101326.50;5080091;28;51081;-61
2022/09/19 04:00:35;;;;;;;;;17.50;14.00;;;;;26.93;100.00;101322.03;5079927;28;51130;-61
2022/09/19 04:03:22;;;;;;;;;15.75;13.50;;;;;26.93;100.00;101311.97;5079835;28;51129;-61
2022/09/19 04:06:07;;;;;;;;;17.25;14.75;;;;;26.94;100.00;101323.75;5080365;28;51153;-61
2022/09/19 04:08:52;;;;;;;;;14.75;11.00;;;;;26.89;100.00;101327.69;5079606;28;51177;-60
2022/09/19 04:11:36;;;;;;;;;14.75;12.00;;;;;26.91;100.00;101323.00;5079981;28;51078;-61
2022/09/19 04:14:22;;;;;;;;;14.50;11.25;;;;;26.86;100.00;101324.28;5079264;28;51498;-61
2022/09/19 04:17:07;;;;;;;;;16.75;12.25;;;;;26.86;100.00;101318.81;5079934;28;51471;-61
2022/09/19 04:19:52;;;;;;;;;16.00;13.50;;;;;26.85;100.00;101325.25;5079463;28;51045;-60
2022/09/19 04:22:37;;;;;;;;;19.25;13.25;;;;;26.84;100.00;101334.41;5080220;28;51181;-60
2022/09/19 04:25:22;;;;;;;;;14.25;14.00;;;;;26.83;100.00;101333.50;5079803;28;51455;-61
2022/09/19 04:28:09;;;;;;;;;16.25;11.00;;;;;26.80;100.00;101333.72;5079745;28;51204;-61
2022/09/19 04:30:55;;;;;;;;;20.00;12.75;;;;;26.74;100.00;101332.22;5079736;28;51213;-61
2022/09/19 04:33:40;;;;;;;;;19.75;14.25;;;;;26.73;100.00;101326.84;5079598;28;51164;-61
2022/09/19 04:36:27;;;;;;;;;14.50;12.00;;;;;26.70;100.00;101337.97;5079870;28;51017;-61
2022/09/19 04:39:12;;;;;;;;;18.50;12.00;;;;;26.68;100.00;101348.97;5079322;28;51450;-61
2022/09/19 04:41:58;;;;;;;;;14.00;10.75;;;;;26.66;100.00;101348.22;5079448;28;51168;-60
2022/09/19 04:44:43;;;;;;;;;17.50;12.75;;;;;26.63;100.00;101356.59;5079313;27;52327;-60
2022/09/19 04:47:28;;;;;;;;;18.50;11.00;;;;;26.60;100.00;101356.75;5083665;27;51184;-61
2022/09/19 04:50:14;;;;;;;;;14.00;12.00;;;;;26.49;100.00;101343.78;5083111;27;51397;-61
2022/09/19 04:52:58;;;;;;;;;16.50;10.75;;;;;26.51;100.00;101354.59;5083298;27;50988;-60
2022/09/19 04:55:42;;;;;;;;;12.50;10.75;;;;;26.50;100.00;101352.84;5083455;27;51557;-61
2022/09/19 04:58:27;;;;;;;;;15.50;13.50;;;;;26.52;100.00;101364.53;5077025;27;51204;-61
2022/09/19 05:01:13;;;;;;;;;14.25;12.75;;;;;26.44;100.00;101355.00;5080960;27;51022;-61
2022/09/19 05:03:58;;;;;;;;;15.75;11.50;;;;;26.42;100.00;101376.03;5082446;27;51158;-60
2022/09/19 05:06:43;;;;;;;;;19.00;12.25;;;;;26.36;100.00;101370.91;5083180;27;51139;-61
2022/09/19 05:09:27;;;;;;;;;19.00;15.00;;;;;26.37;100.00;101374.56;5067106;27;51198;-61
2022/09/19 05:12:12;;;;;;;;;13.75;10.25;;;;;26.39;100.00;101381.66;5083156;27;51240;-61
2022/09/19 05:14:56;;;;;;;;;12.75;8.75;;;;;26.40;100.00;101386.16;5082638;27;51237;-61
2022/09/19 05:17:40;;;;;;;;;12.75;9.50;;;;;26.38;100.00;101369.00;5082841;27;51451;-61
2022/09/19 05:20:27;;;;;;;;;15.50;12.50;;;;;26.34;100.00;101375.63;5082849;27;51496;-61
2022/09/19 05:23:14;;;;;;;;;13.50;11.25;;;;;26.35;100.00;101374.63;5067469;27;51373;-61
2022/09/19 05:26:05;;;;;;;;;16.75;13.50;;;;;26.37;100.00;101374.56;5081375;27;52150;-61
2022/09/19 05:28:50;;;;;;;;;19.25;14.25;;;;;26.37;100.00;101377.28;5082074;27;51532;-60
2022/09/19 05:31:35;;;;;;;;;14.00;13.25;;;;;26.39;100.00;101378.06;5082450;27;51128;-60
2022/09/19 05:34:19;;;;;;;;;14.25;9.25;;;;;26.39;100.00;101378.94;5082372;27;51133;-61
2022/09/19 05:37:04;;;;;;;;;17.00;12.50;;;;;26.38;100.00;101388.09;5082681;27;50996;-60
2022/09/19 05:39:48;;;;;;;;;27.25;16.25;;;;;26.36;100.00;101381.84;5075840;27;51187;-61
2022/09/19 05:42:32;;;;;;;;;20.75;18.00;;;;;26.41;100.00;101384.28;5080686;27;51080;-61
2022/09/19 05:45:17;;;;;;;;;19.25;13.75;;;;;26.41;100.00;101392.47;5076773;27;51547;-61
2022/09/19 05:48:04;;;;;;;;;23.75;15.75;;;;;26.29;100.00;101375.91;5081916;27;51093;-61
2022/09/19 05:50:49;;;;;;;;;23.00;13.25;;;;;26.43;100.00;101399.63;5082382;27;51093;-61
2022/09/19 05:53:53;;;;;;;;;20.25;14.75;;;;;26.43;100.00;101399.63;5082050;27;51240;-61
2022/09/19 05:56:37;;;;;;;;;19.75;14.75;;;;;26.47;100.00;101405.75;5069057;27;51480;-61
2022/09/19 05:59:21;;;;;;;;;18.75;16.00;;;;;26.50;100.00;101399.22;5081489;27;51153;-60
2022/09/19 06:02:10;;;;;;;;;14.00;13.00;;;;;26.53;100.00;101407.25;5082189;27;51085;-61
2022/09/19 06:04:54;;;;;;;;;18.50;13.75;;;;;26.53;100.00;101410.84;5066244;27;51410;-60
2022/09/19 06:07:39;;;;;;;;;14.75;12.00;;;;;26.54;100.00;101415.31;5061736;27;52545;-61
2022/09/19 06:10:24;;;;;;;;;14.25;9.75;;;;;26.51;100.00;101399.13;5079313;27;51351;-60
2022/09/19 06:13:14;;;;;;;;;20.00;15.25;;;;;26.46;100.00;101401.28;5073252;27;51235;-60
2022/09/19 06:15:59;;;;;;;;;16.00;12.25;;;;;26.41;100.00;101403.38;5075292;27;51503;-60
2022/09/19 06:18:45;;;;;;;;;13.00;9.50;;;;;26.38;100.00;101400.88;5074634;27;51181;-61
2022/09/19 06:21:31;;;;;;;;;19.00;12.00;;;;;26.43;100.00;101413.25;5078285;27;51409;-61
2022/09/19 06:24:16;;;;;;;;;19.00;15.00;;;;;26.43;100.00;101416.00;5079671;27;51240;-60
2022/09/19 06:27:00;;;;;;;;;21.75;14.75;;;;;26.45;100.00;101424.06;5080357;27;51175;-60
2022/09/19 06:29:44;;;;;;;;;18.00;14.00;;;;;26.49;100.00;101424.75;5074444;27;51247;-61
2022/09/19 06:32:29;;;;;;;;;20.25;16.50;;;;;26.47;100.00;101404.88;5080311;27;51203;-60
2022/09/19 06:35:13;;;;;;;;;22.25;17.00;;;;;26.47;100.00;101407.59;5076249;27;51261;-61
2022/09/19 06:38:00;;;;;;;;;18.75;13.50;;;;;26.45;100.00;101416.78;5077888;27;51152;-60
2022/09/19 06:40:44;;;;;;;;;27.25;16.50;;;;;26.40;100.00;101409.84;5077553;27;51521;-60
2022/09/19 06:43:30;;;;;;;;;18.50;12.75;;;;;26.24;100.00;101398.97;5077860;27;51113;-60
2022/09/19 06:46:15;;;;;;;;;15.00;14.00;;;;;26.35;100.00;101414.69;5079178;27;51133;-61
2022/09/19 06:49:01;;;;;;;;;4.75;0.00;;;;;26.36;100.00;101416.44;5063976;27;51236;-61
2022/09/19 06:51:45;;;;;;;;;18.50;11.00;;;;;26.29;100.00;101410.47;5074660;27;51402;-61
2022/09/19 06:54:31;;;;;;;;;18.25;13.00;;;;;26.40;100.00;101424.34;5078722;27;51462;-60
2022/09/19 06:57:15;;;;;;;;;15.75;12.00;;;;;26.44;100.00;101420.47;5078833;27;51329;-61
2022/09/19 07:00:00;;;;;;;;;13.50;11.25;;;;;26.46;100.00;101428.56;5079370;27;51180;-61
2022/09/19 07:02:45;;;;;;;;;15.00;12.75;;;;;26.50;100.00;101427.41;5079850;27;51152;-60
2022/09/19 07:05:31;;;;;;;;;14.25;9.00;;;;;26.53;100.00;101434.53;5078963;27;50956;-62
2022/09/19 07:08:15;;;;;;;;;13.00;10.50;;;;;26.56;100.00;101445.28;5078479;27;51474;-61
2022/09/19 07:11:00;;;;;;;;;17.00;15.00;;;;;26.56;100.00;101440.69;5078886;27;51271;-59
2022/09/19 07:13:49;;;;;;;;;16.75;14.75;;;;;26.66;100.00;101445.56;5065047;27;51089;-62
2022/09/19 07:16:33;;;;;;;;;35.75;32.00;;;;;26.79;100.00;101452.09;5080095;27;51121;-55
2022/09/19 07:19:18;;;;;;;;;14.50;10.50;;;;;26.81;100.00;101452.88;5080002;27;51548;-51
2022/09/19 07:22:05;;;;;;;;;18.50;10.00;;;;;26.87;100.00;101465.28;5078645;27;51260;-53
2022/09/19 07:24:50;;;;;;;;;14.75;9.50;;;;;26.89;100.00;101460.56;5080138;27;51185;-54
2022/09/19 07:27:35;;;;;;;;;8.75;7.50;;;;;26.92;100.00;101474.06;5080143;27;51088;-53
2022/09/19 07:30:20;;;;;;;;;13.00;8.50;;;;;26.89;100.00;101468.78;5079923;27;51111;-52
2022/09/19 07:33:07;;;;;;;;;13.25;8.00;;;;;26.86;100.00;101485.38;5079612;27;51428;-55
2022/09/19 07:35:54;;;;;;;;;11.25;8.00;;;;;26.80;100.00;101483.88;5073265;27;52576;-53
2022/09/19 07:38:39;;;;;;;;;8.00;5.25;;;;;26.70;100.00;101504.50;5079896;27;51098;-53
2022/09/19 07:41:23;;;;;;;;;1.50;0.00;;;;;26.59;100.00;101502.38;5080246;27;51048;-53
2022/09/19 07:44:08;;;;;;;;;7.25;5.25;;;;;26.52;100.00;101492.81;5078769;27;51071;-51
2022/09/19 07:49:56;;;;;;;;;8.50;6.75;;;;;26.52;100.00;101488.22;5061322;28;51518;-52
2022/09/19 07:52:41;;;;;;;;;15.00;7.25;;;;;26.51;100.00;101491.03;5071475;28;51196;-55
2022/09/19 07:55:27;;;;;;;;;11.25;6.75;;;;;26.49;100.00;101487.53;5079543;28;51106;-56
2022/09/19 07:58:12;;;;;;;;;7.00;6.25;;;;;26.50;100.00;101501.09;5079038;28;51499;-56
2022/09/19 08:00:59;;;;;;;;;14.50;8.00;;;;;26.54;100.00;101493.59;5079648;28;51099;-55
2022/09/19 08:03:46;;;;;;;;;15.75;11.25;;;;;26.49;100.00;101487.53;5077821;28;53098;-56
2022/09/19 08:06:33;;;;;;;;;13.25;9.00;;;;;26.54;100.00;101496.34;5079662;28;51065;-57
2022/09/19 08:09:18;;;;;;;;;15.50;7.00;;;;;26.58;100.00;101503.34;5079241;28;52282;-57
2022/09/19 08:12:04;;;;;;;;;12.00;8.00;;;;;26.55;100.00;101509.00;5079238;28;51403;-57
2022/09/19 08:14:49;;;;;;;;;17.75;10.00;;;;;26.46;100.00;101496.78;5066187;28;51462;-57
2022/09/19 08:17:33;;;;;;;;;16.00;8.25;;;;;26.50;100.00;101522.03;5078389;28;51220;-57
2022/09/19 08:20:17;;;;;;;;;15.75;12.00;;;;;26.45;100.00;101512.28;5082298;27;51216;-56
2022/09/19 08:23:05;;;;;;;;;17.75;12.00;;;;;26.41;100.00;101527.06;5082895;27;51145;-57
2022/09/19 08:25:51;;;;;;;;;21.75;13.25;;;;;26.12;100.00;101526.00;5069028;27;51296;-54
2022/09/19 08:28:36;;;;;;;;;32.00;16.75;;;;;25.88;100.00;101541.88;5074420;27;51185;-57
2022/09/19 08:31:20;;;;;;;;;16.75;12.25;;;;;25.72;100.00;101539.97;5076419;27;51173;-57
2022/09/19 08:34:05;;;;;;;;;30.00;17.00;;;;;25.58;100.00;101518.06;5083256;27;50994;-57
2022/09/19 08:36:49;;;;;;;;;11.25;8.50;;;;;25.46;100.00;101525.97;5082717;27;51178;-57
2022/09/19 08:39:33;;;;;;;;;24.75;16.00;;;;;25.33;100.00;101541.16;5083281;27;51460;-56
2022/09/19 08:42:27;;;;;;;;;26.75;18.00;;;;;25.12;100.00;101546.78;5082338;27;51129;-56
2022/09/19 08:45:37;;;;;;;;;24.50;16.25;;;;;25.01;100.00;101541.91;5067888;27;51410;-57
2022/09/19 08:48:29;;;;;;;;;29.50;17.75;;;;;24.96;100.00;101548.56;5067863;27;51117;-56
2022/09/19 08:51:20;;;;;;;;;19.00;13.25;;;;;24.90;100.00;101561.50;5067751;27;51473;-56
2022/09/19 08:54:40;;;;;;;;;26.25;16.50;;;;;24.90;100.00;101566.94;5082054;27;51157;-57
2022/09/19 08:57:29;;;;;;;;;16.75;13.25;;;;;24.93;100.00;101565.91;5049576;27;51059;-57
2022/09/19 09:00:19;;;;;;;;;16.50;10.50;;;;;24.91;100.00;101551.50;5064009;27;51133;-56
2022/09/19 09:03:19;;;;;;;;;17.50;7.25;;;;;24.93;100.00;101551.41;5066036;27;51194;-55
2022/09/19 09:06:18;;;;;;;;;19.50;15.75;;;;;24.98;100.00;101562.94;5081920;27;51418;-56
2022/09/19 09:09:44;;;;;;;;;13.25;9.50;;;;;25.11;100.00;101565.94;5067292;27;51254;-54
2022/09/19 09:12:35;;;;;;;;;8.00;7.00;;;;;25.14;100.00;101561.19;5081171;27;51090;-56
2022/09/19 09:15:29;;;;;;;;;10.25;6.25;;;;;25.19;100.00;101561.81;5082045;27;51145;-56
2022/09/19 09:18:22;;;;;;;;;12.75;12.00;;;;;25.21;100.00;101565.34;5066223;27;51190;-54
2022/09/19 09:21:31;;;;;;;;;19.75;17.00;;;;;25.21;100.00;101565.34;5081916;27;51116;-56
2022/09/19 09:24:31;;;;;;;;;23.00;21.25;;;;;25.26;100.00;101565.09;5064869;27;51218;-57
2022/09/19 09:27:20;;;;;;;;;19.75;15.50;;;;;25.32;100.00;101564.81;5056347;27;51450;-57
2022/09/19 09:30:17;;;;;;;;;13.25;12.75;;;;;25.35;100.00;101570.06;5065674;27;51089;-56
2022/09/19 09:33:27;;;;;;;;;15.50;12.00;;;;;25.40;100.00;101563.50;5080357;27;51207;-55
2022/09/19 09:36:15;;;;;;;;;19.00;11.25;;;;;25.48;100.00;101566.72;5065077;27;51223;-55
2022/09/19 09:40:09;;;;;;;;;13.25;12.75;;;;;25.58;100.00;101567.13;5064658;27;51253;-56
2022/09/19 09:43:09;;;;;;;;;26.50;16.25;;;;;25.74;100.00;101561.72;4977489;28;51161;-58
2022/09/19 09:45:54;;;;;;;;;14.00;10.25;;;;;25.86;100.00;101562.88;4963905;28;51664;-54
2022/09/19 09:48:39;;;;;;;;;12.25;3.75;;;;;25.92;100.00;101555.25;5065186;27;51199;-55
2022/09/19 09:51:41;;;;;;;;;11.75;8.00;;;;;26.01;100.00;101562.03;5069434;27;51274;-58
2022/09/19 09:58:04;;;;;;;;;6.00;5.25;;;;;26.10;100.00;101564.28;5080830;27;51240;-55
2022/09/19 10:04:33;;;;;;;;;9.50;6.00;;;;;26.14;100.00;101548.63;5065525;27;51219;-56
2022/09/19 10:07:40;;;;;;;;;10.25;9.00;;;;;26.08;100.00;101547.09;5078943;27;51275;-55
2022/09/19 10:10:28;;;;;;;;;22.50;11.00;;;;;26.09;100.00;101547.97;5079710;27;51186;-56
2022/09/19 10:13:27;;;;;;;;;15.00;11.00;;;;;26.06;100.00;101538.09;5064944;27;51588;-55
2022/09/19 10:16:17;;;;;;;;;14.25;11.00;;;;;26.02;100.00;101549.28;5079284;27;51314;-56
2022/09/19 10:19:29;;;;;;;;;16.00;13.25;;;;;26.00;100.00;101538.47;5080527;27;51377;-56
2022/09/19 10:22:15;;;;;;;;;21.50;14.75;;;;;26.03;100.00;101529.22;5064912;27;51484;-56
2022/09/19 10:25:08;;;;;;;;;21.00;13.75;;;;;26.06;100.00;101534.50;5080082;27;51468;-56
2022/09/19 10:27:53;;;;;;;;;18.75;15.00;;;;;26.08;100.00;101519.81;5080095;27;51026;-55
2022/09/19 10:30:55;;;;;;;;;16.50;10.00;;;;;26.10;100.00;101509.75;5080953;27;51412;-55
2022/09/19 10:33:47;;;;;;;;;17.25;12.00;;;;;26.16;100.00;101516.69;5080761;27;51438;-56
2022/09/19 10:36:34;;;;;;;;;8.75;8.75;;;;;26.05;100.00;101519.97;5073991;27;51703;-55
2022/09/19 10:39:22;;;;;;;;;12.25;6.25;;;;;25.89;100.00;101516.38;5047060;27;51212;-55
2022/09/19 10:42:42;;;;;;;;;13.75;8.25;;;;;25.66;100.00;101515.81;5079656;27;51155;-55
2022/09/19 10:45:30;;;;;;;;;14.25;8.00;;;;;25.52;100.00;101501.09;5079788;27;51114;-56
2022/09/19 10:48:33;;;;;;;;;23.50;10.25;;;;;25.47;100.00;101499.56;5069736;27;51117;-55
2022/09/19 10:51:17;;;;;;;;;15.00;9.00;;;;;25.47;100.00;101488.69;5080523;27;51187;-53
2022/09/19 10:54:11;;;;;;;;;9.75;5.00;;;;;25.47;100.00;101486.84;5064269;27;51102;-53
2022/09/19 10:56:58;;;;;;;;;6.25;4.25;;;;;25.48;100.00;101488.63;5065633;27;51180;-55
2022/09/19 10:59:43;;;;;;;;;5.00;3.25;;;;;25.56;100.00;101499.06;5065725;27;51208;-54
2022/09/19 11:02:28;;;;;;;;;8.25;4.00;;;;;25.57;100.00;101495.38;5080340;27;51173;-55
2022/09/19 11:05:23;;;;;;;;;5.00;3.50;;;;;25.68;100.00;101482.03;5080025;27;51073;-55
2022/09/19 11:08:25;;;;;;;;;12.50;7.25;;;;;25.81;100.00;101481.34;5080189;27;51192;-54
2022/09/19 11:11:38;;;;;;;;;15.50;8.25;;;;;25.85;100.00;101466.59;5080588;27;51095;-54
2022/09/19 11:14:36;;;;;;;;;15.75;9.75;;;;;25.82;100.00;101478.53;5079791;27;51105;-57
2022/09/19 11:17:33;;;;;;;;;9.00;4.75;;;;;25.83;100.00;101477.56;5079990;27;51128;-57
2022/09/19 11:20:49;;;;;;;;;7.50;4.00;;;;;25.83;100.00;101457.63;5080410;27;51122;-54
2022/09/19 11:23:46;;;;;;;;;8.00;3.75;;;;;25.80;100.00;101449.63;5079829;27;51031;-54
2022/09/19 11:26:58;;;;;;;;;8.25;5.25;;;;;25.78;100.00;101446.09;5079673;27;51385;-55
2022/09/19 11:30:06;;;;;;;;;9.50;7.50;;;;;25.79;100.00;101456.03;5079876;27;51283;-56
2022/09/19 11:33:27;;;;;;;;;11.75;8.00;;;;;25.81;100.00;101446.81;5080214;27;51505;-57
2022/09/19 11:36:36;;;;;;;;;9.75;6.75;;;;;25.88;100.00;101439.16;5067327;27;51210;-56
2022/09/19 11:39:57;;;;;;;;;8.00;7.50;;;;;25.96;100.00;101442.34;5065037;27;51093;-57
2022/09/19 11:42:55;;;;;;;;;16.25;10.75;;;;;26.03;100.00;101441.97;5069775;27;51585;-58
2022/09/19 11:45:59;;;;;;;;;16.25;11.00;;;;;26.08;100.00;101427.09;5070101;27;51210;-55
2022/09/19 11:48:54;;;;;;;;;21.75;14.00;;;;;26.12;100.00;101425.09;5071978;28;51179;-57
2022/09/19 11:51:50;;;;;;;;;18.75;14.00;;;;;26.16;100.00;101413.06;5075786;27;51183;-55
2022/09/19 11:55:15;;;;;;;;;19.00;14.00;;;;;26.18;100.00;101419.31;5050213;28;51164;-57
2022/09/19 11:58:24;;;;;;;;;17.00;10.00;;;;;26.24;100.00;101409.88;5080182;28;51281;-57
2022/09/19 12:01:35;;;;;;;;;18.50;13.00;;;;;26.23;100.00;101414.44;5064863;28;51457;-58
2022/09/19 12:04:28;;;;;;;;;10.25;7.25;;;;;26.21;100.00;101393.69;5050550;28;51185;-55
2022/09/19 12:07:24;;;;;;;;;14.50;10.50;;;;;26.21;100.00;101394.53;5080392;28;51287;-58
2022/09/19 12:10:20;;;;;;;;;16.50;13.00;;;;;26.23;100.00;101389.88;5080140;28;51524;-57
2022/09/19 12:13:49;;;;;;;;;17.00;12.50;;;;;26.24;100.00;101377.16;5079697;28;51150;-57
2022/09/19 12:16:44;;;;;;;;;15.75;10.25;;;;;26.25;100.00;101373.41;5072755;28;51509;-57
2022/09/19 12:19:51;;;;;;;;;22.00;14.75;;;;;26.29;100.00;101361.38;5064493;28;51173;-57
2022/09/19 12:22:38;;;;;;;;;19.75;13.75;;;;;26.32;100.00;101360.28;5064022;28;51117;-55
2022/09/19 12:25:25;;;;;;;;;13.75;11.25;;;;;26.32;100.00;101344.81;5064220;28;51050;-54
2022/09/19 12:28:15;;;;;;;;;16.50;13.75;;;;;26.28;100.00;101332.31;5079769;28;51116;-56
2022/09/19 12:31:04;;;;;;;;;18.75;12.50;;;;;26.35;100.00;101339.16;5064450;28;51061;-56
2022/09/19 12:33:54;;;;;;;;;17.50;11.50;;;;;26.33;100.00;101332.03;5061221;28;51235;-55
2022/09/19 12:36:55;;;;;;;;;17.00;11.75;;;;;26.32;100.00;101339.38;5078092;28;51272;-56
2022/09/19 12:39:48;;;;;;;;;17.25;12.00;;;;;26.32;100.00;101335.75;5064185;28;51167;-56
2022/09/19 12:43:01;;;;;;;;;12.50;6.25;;;;;26.35;100.00;101343.75;5064105;28;51484;-55
2022/09/19 12:46:08;;;;;;;;;14.00;11.25;;;;;26.33;100.00;101324.75;5036844;28;51227;-55
2022/09/19 12:49:03;;;;;;;;;17.00;12.25;;;;;26.34;100.00;101323.78;5062325;28;51480;-56
2022/09/19 12:52:12;;;;;;;;;15.50;12.25;;;;;26.40;100.00;101326.13;5047303;28;51120;-56
2022/09/19 12:55:17;;;;;;;;;12.25;11.75;;;;;26.43;100.00;101311.41;5061054;28;51421;-55
2022/09/19 12:58:46;;;;;;;;;12.00;10.25;;;;;26.41;100.00;101294.25;5063459;28;51096;-57
2022/09/19 13:01:45;;;;;;;;;15.75;13.00;;;;;26.49;100.00;101299.25;5074081;27;51607;-56
2022/09/19 13:04:54;;;;;;;;;21.25;15.00;;;;;26.51;100.00;101291.84;5078796;28;51093;-56
2022/09/19 13:08:01;;;;;;;;;18.25;10.75;;;;;26.53;100.00;101279.84;5081583;27;51223;-56
2022/09/19 13:11:24;;;;;;;;;12.25;8.50;;;;;26.56;100.00;101265.16;5076735;27;51452;-53
2022/09/19 13:14:21;;;;;;;;;16.50;12.00;;;;;26.64;100.00;101279.19;5078392;27;51065;-56